Time;durP1;ratioP1;P1;durP2;ratioP2;P2;SDS_P1;SDS_P2;PMS_P1;PMS_P2;Temp;Humidity;BMP_temperature;BMP_pressure;BME280_temperature;BME280_humidity;BME280_pressure;Samples;Min_cycle;Max_cycle;Signal;HPM_P1;HPM_P2
2022/04/28 00:02:15;;;;;;;;;;;10.60;99.90;;;;;;5055044;28;19915;-67
2022/04/28 00:04:40;;;;;;;;;;;10.40;99.90;;;;;;5054283;28;19924;-69
2022/04/28 00:07:05;;;;;;;;;;;10.40;99.90;;;;;;5055193;28;20388;-70
2022/04/28 00:09:31;;;;;;;;;;;10.30;99.90;;;;;;5054434;28;20449;-67
2022/04/28 00:11:56;;;;;;;;;;;10.30;99.90;;;;;;5054737;28;20420;-69
2022/04/28 00:14:22;;;;;;;;;;;10.30;99.90;;;;;;5054649;28;19913;-69
2022/04/28 00:16:47;;;;;;;;;;;10.30;99.90;;;;;;5053857;28;19909;-67
2022/04/28 00:19:13;;;;;;;;;;;10.20;99.90;;;;;;5054018;28;20437;-68
2022/04/28 00:21:38;;;;;;;;;;;10.10;99.90;;;;;;5054327;28;19952;-68
2022/04/28 00:24:04;;;;;;;;;;;10.10;99.90;;;;;;5054309;28;19917;-67
2022/04/28 00:26:30;;;;;;;;;;;10.10;99.90;;;;;;5054227;28;19920;-68
2022/04/28 00:28:55;;;;;;;;;;;10.10;99.90;;;;;;5054072;28;19916;-68
2022/04/28 00:31:20;;;;;;;;;;;10.20;99.90;;;;;;5054290;28;19919;-68
2022/04/28 00:33:48;;;;;;;;;;;10.10;99.90;;;;;;5054028;28;19909;-69
2022/04/28 00:36:14;;;;;;;;;;;10.10;99.90;;;;;;5053831;28;19909;-69
2022/04/28 00:38:39;;;;;;;;;;;10.00;99.90;;;;;;5054088;28;19909;-69
2022/04/28 00:41:05;;;;;;;;;;;9.80;99.90;;;;;;5053744;28;20004;-69
2022/04/28 00:43:31;;;;;;;;;;;9.90;99.90;;;;;;5057466;28;19908;-67
2022/04/28 00:45:57;;;;;;;;;;;9.90;99.90;;;;;;5057753;28;19935;-66
2022/04/28 00:51:07;;;;;;;;;;;9.80;99.90;;;;;;5054293;28;19924;-68
2022/04/28 00:53:34;;;;;;;;;;;9.80;99.90;;;;;;5054060;28;19915;-68
2022/04/28 00:56:00;;;;;;;;;;;9.80;99.90;;;;;;5054113;28;20000;-69
2022/04/28 00:58:26;;;;;;;;;;;9.80;99.90;;;;;;5054339;28;19978;-68
2022/04/28 01:00:53;;;;;;;;;;;9.80;99.90;;;;;;5053521;28;20011;-68
2022/04/28 01:03:20;;;;;;;;;;;9.70;99.90;;;;;;5053333;28;19909;-67
2022/04/28 01:05:45;;;;;;;;;;;9.50;99.90;;;;;;5053921;28;20380;-68
2022/04/28 01:08:10;;;;;;;;;;;9.30;99.90;;;;;;5053722;28;19995;-68
2022/04/28 01:10:36;;;;;;;;;;;9.40;99.90;;;;;;5053251;28;20309;-69
2022/04/28 01:13:02;;;;;;;;;;;9.30;99.90;;;;;;5053574;28;20380;-67
2022/04/28 01:15:27;;;;;;;;;;;9.30;99.90;;;;;;5052653;28;19959;-67
2022/04/28 01:17:53;;;;;;;;;;;9.40;99.90;;;;;;5053315;28;19908;-68
2022/04/28 01:20:18;;;;;;;;;;;9.40;99.90;;;;;;5053013;28;19999;-67
2022/04/28 01:22:43;;;;;;;;;;;9.40;99.90;;;;;;5053123;28;19924;-67
2022/04/28 01:25:09;;;;;;;;;;;9.50;99.90;;;;;;5053364;28;20045;-67
2022/04/28 01:27:36;;;;;;;;;;;9.40;99.90;;;;;;5052787;28;19916;-67
2022/04/28 01:30:12;;;;;;;;;;;9.40;99.90;;;;;;5053012;28;19909;-66
2022/04/28 01:32:37;;;;;;;;;;;9.30;99.90;;;;;;5052774;28;20379;-68
2022/04/28 01:35:03;;;;;;;;;;;9.30;99.90;;;;;;5053016;28;19955;-69
2022/04/28 01:37:28;;;;;;;;;;;9.40;99.90;;;;;;5053137;28;19916;-67
2022/04/28 01:39:55;;;;;;;;;;;9.40;99.90;;;;;;5051243;28;19912;-67
2022/04/28 01:42:22;;;;;;;;;;;9.50;99.90;;;;;;5052877;28;19932;-67
2022/04/28 01:44:48;;;;;;;;;;;9.50;99.90;;;;;;5053037;28;19979;-66
2022/04/28 01:47:14;;;;;;;;;;;9.50;99.90;;;;;;5051336;28;19944;-68
2022/04/28 01:49:39;;;;;;;;;;;9.40;99.90;;;;;;5052242;28;20493;-67
2022/04/28 01:54:58;;;;;;;;;;;9.40;99.90;;;;;;5053274;28;19915;-67
2022/04/28 01:57:24;;;;;;;;;;;9.50;99.90;;;;;;5052778;28;19932;-68
2022/04/28 01:59:51;;;;;;;;;;;9.50;99.90;;;;;;5052520;28;20051;-67
2022/04/28 02:02:16;;;;;;;;;;;9.50;99.90;;;;;;5052722;28;19915;-68
2022/04/28 02:04:41;;;;;;;;;;;9.40;99.90;;;;;;5052807;28;19908;-68
2022/04/28 02:07:07;;;;;;;;;;;9.40;99.90;;;;;;5052497;28;19909;-67
2022/04/28 02:09:32;;;;;;;;;;;9.30;99.90;;;;;;5052139;28;19909;-68
2022/04/28 02:11:58;;;;;;;;;;;9.20;99.90;;;;;;5052498;28;20294;-68
2022/04/28 02:14:24;;;;;;;;;;;9.30;99.90;;;;;;5052527;28;19909;-67
2022/04/28 02:16:49;;;;;;;;;;;9.30;99.90;;;;;;5052733;28;20294;-67
2022/04/28 02:19:15;;;;;;;;;;;9.30;99.90;;;;;;5052558;28;19908;-68
2022/04/28 02:21:40;;;;;;;;;;;9.40;99.90;;;;;;5052395;28;19909;-68
2022/04/28 02:24:06;;;;;;;;;;;9.40;99.90;;;;;;5052251;28;19967;-67
2022/04/28 02:26:31;;;;;;;;;;;9.50;99.90;;;;;;5053673;28;19909;-68
2022/04/28 02:28:57;;;;;;;;;;;9.70;99.90;;;;;;5056311;28;19917;-68
2022/04/28 02:31:22;;;;;;;;;;;9.60;99.90;;;;;;5056177;28;19913;-68
2022/04/28 02:33:48;;;;;;;;;;;9.50;99.90;;;;;;5056255;28;19964;-67
2022/04/28 02:36:13;;;;;;;;;;;9.40;99.90;;;;;;5056065;28;20377;-68
2022/04/28 02:38:38;;;;;;;;;;;9.30;99.90;;;;;;5056325;28;19916;-66
2022/04/28 02:41:04;;;;;;;;;;;9.30;99.90;;;;;;5055845;28;19980;-66
2022/04/28 02:43:29;;;;;;;;;;;9.20;99.90;;;;;;5056172;28;20306;-67
2022/04/28 02:45:55;;;;;;;;;;;9.00;99.90;;;;;;5054529;28;20332;-69
2022/04/28 02:48:20;;;;;;;;;;;8.90;99.90;;;;;;5056066;28;19915;-67
2022/04/28 02:50:46;;;;;;;;;;;8.90;99.90;;;;;;5055669;28;20051;-68
2022/04/28 02:53:11;;;;;;;;;;;8.80;99.90;;;;;;5055896;28;19908;-66
2022/04/28 02:55:38;;;;;;;;;;;8.90;99.90;;;;;;5055682;28;20369;-66
2022/04/28 02:58:03;;;;;;;;;;;8.90;99.90;;;;;;5055756;28;19913;-66
2022/04/28 03:00:29;;;;;;;;;;;8.80;99.90;;;;;;5056722;28;20063;-69
2022/04/28 03:02:54;;;;;;;;;;;8.80;99.90;;;;;;5055880;28;19999;-68
2022/04/28 03:05:19;;;;;;;;;;;8.90;99.90;;;;;;5055964;28;19958;-67
2022/04/28 03:13:10;;;;;;;;;;;8.70;99.90;;;;;;5056159;28;19913;-68
2022/04/28 03:15:36;;;;;;;;;;;8.70;99.90;;;;;;5056063;28;19909;-67
2022/04/28 03:18:01;;;;;;;;;;;8.80;99.90;;;;;;5056120;28;19909;-69
2022/04/28 03:20:27;;;;;;;;;;;8.70;99.90;;;;;;5055593;28;19909;-68
2022/04/28 03:22:52;;;;;;;;;;;8.60;99.90;;;;;;5055936;28;19916;-69
2022/04/28 03:25:18;;;;;;;;;;;8.60;99.90;;;;;;5055496;28;19908;-68
2022/04/28 03:27:43;;;;;;;;;;;8.60;99.90;;;;;;5055542;28;19909;-68
2022/04/28 03:30:09;;;;;;;;;;;8.50;99.90;;;;;;5055095;28;19920;-69
2022/04/28 03:32:35;;;;;;;;;;;8.60;99.90;;;;;;5055217;28;19920;-68
2022/04/28 03:35:00;;;;;;;;;;;8.60;99.90;;;;;;5055524;28;19909;-67
2022/04/28 03:37:26;;;;;;;;;;;8.70;99.90;;;;;;5054032;28;20274;-69
2022/04/28 03:39:51;;;;;;;;;;;8.70;99.90;;;;;;5054637;28;19916;-68
2022/04/28 03:42:17;;;;;;;;;;;8.80;99.90;;;;;;5054681;28;19909;-67
2022/04/28 03:44:43;;;;;;;;;;;8.80;99.90;;;;;;5054873;28;19909;-67
2022/04/28 03:47:08;;;;;;;;;;;8.80;99.90;;;;;;5053668;28;19909;-67
2022/04/28 03:49:34;;;;;;;;;;;8.80;99.90;;;;;;5054700;28;19909;-68
2022/04/28 03:51:59;;;;;;;;;;;8.70;99.90;;;;;;5054732;28;19917;-68
2022/04/28 03:54:24;;;;;;;;;;;8.70;99.90;;;;;;5054976;28;19951;-67
2022/04/28 03:56:50;;;;;;;;;;;8.60;99.90;;;;;;5053988;28;19999;-68
2022/04/28 03:59:15;;;;;;;;;;;8.60;99.90;;;;;;5054899;28;19935;-68
2022/04/28 04:01:41;;;;;;;;;;;8.50;99.90;;;;;;5055070;28;19971;-67
2022/04/28 04:04:06;;;;;;;;;;;8.40;99.90;;;;;;5054940;28;20002;-68
2022/04/28 04:06:32;;;;;;;;;;;8.40;99.90;;;;;;5054823;28;19909;-67
2022/04/28 04:08:57;;;;;;;;;;;8.30;99.90;;;;;;5054579;28;20359;-68
2022/04/28 04:11:23;;;;;;;;;;;8.30;99.90;;;;;;5054455;28;20327;-67
2022/04/28 04:13:49;;;;;;;;;;;8.30;99.90;;;;;;5054427;28;19909;-69
2022/04/28 04:16:14;;;;;;;;;;;8.30;99.90;;;;;;5054497;28;19913;-68
2022/04/28 04:18:40;;;;;;;;;;;8.30;99.90;;;;;;5054626;28;19931;-69
2022/04/28 04:21:05;;;;;;;;;;;8.40;99.90;;;;;;5054133;28;19915;-68
2022/04/28 04:23:31;;;;;;;;;;;8.40;99.90;;;;;;5076070;22;19952;-72
2022/04/28 04:25:57;;;;;;;;;;;8.40;99.90;;;;;;5053127;28;19908;-72
2022/04/28 04:28:23;;;;;;;;;;;8.30;99.90;;;;;;5053292;28;20007;-72
2022/04/28 04:33:32;;;;;;;;;;;8.60;99.90;;;;;;5053278;28;19970;-73
2022/04/28 04:35:58;;;;;;;;;;;8.60;99.90;;;;;;5053312;28;19913;-74
2022/04/28 04:38:23;;;;;;;;;;;8.60;99.90;;;;;;5051278;28;19909;-72
2022/04/28 04:40:49;;;;;;;;;;;8.60;99.90;;;;;;5052969;28;20023;-73
2022/04/28 04:43:14;;;;;;;;;;;8.50;99.90;;;;;;5053229;28;19909;-75
2022/04/28 04:45:42;;;;;;;;;;;8.60;99.90;;;;;;5053078;28;19979;-73
2022/04/28 04:48:11;;;;;;;;;;;8.60;99.90;;;;;;5053221;28;19909;-73
2022/04/28 04:50:37;;;;;;;;;;;8.70;99.90;;;;;;5053175;28;19916;-72
2022/04/28 04:53:04;;;;;;;;;;;8.80;99.90;;;;;;5053261;28;19913;-74
2022/04/28 04:55:30;;;;;;;;;;;8.90;99.90;;;;;;5053099;28;19944;-73
2022/04/28 04:57:55;;;;;;;;;;;9.00;99.90;;;;;;5053030;28;19958;-73
2022/04/28 05:00:21;;;;;;;;;;;9.00;99.90;;;;;;5052446;28;20386;-74
2022/04/28 05:02:46;;;;;;;;;;;8.90;99.90;;;;;;5053081;28;19909;-72
2022/04/28 05:05:12;;;;;;;;;;;8.90;99.90;;;;;;5052506;28;19956;-72
2022/04/28 05:07:37;;;;;;;;;;;8.80;99.90;;;;;;5052471;28;20271;-72
2022/04/28 05:10:03;;;;;;;;;;;8.70;99.90;;;;;;5052395;28;19913;-73
2022/04/28 05:12:28;;;;;;;;;;;8.60;99.90;;;;;;5052993;28;19913;-73
2022/04/28 05:14:54;;;;;;;;;;;8.50;99.90;;;;;;5052590;28;19961;-73
2022/04/28 05:17:19;;;;;;;;;;;8.40;99.90;;;;;;5052614;28;19909;-74
2022/04/28 05:19:44;;;;;;;;;;;8.50;99.90;;;;;;5051306;28;19916;-73
2022/04/28 05:22:10;;;;;;;;;;;8.50;99.90;;;;;;5052940;28;19916;-73
2022/04/28 05:24:35;;;;;;;;;;;8.50;99.90;;;;;;5049298;28;19916;-76
2022/04/28 05:27:01;;;;;;;;;;;8.50;99.90;;;;;;5056235;28;19916;-73
2022/04/28 05:29:26;;;;;;;;;;;8.50;99.90;;;;;;5058044;28;20333;-77
2022/04/28 05:31:52;;;;;;;;;;;8.60;99.90;;;;;;5056819;28;19952;-75
2022/04/28 05:34:26;;;;;;;;;;;8.80;99.90;;;;;;5056388;28;19960;-73
2022/04/28 05:36:52;;;;;;;;;;;9.00;99.90;;;;;;5059734;28;20004;-73
2022/04/28 05:39:17;;;;;;;;;;;9.10;99.90;;;;;;5053629;28;20437;-72
2022/04/28 05:41:43;;;;;;;;;;;9.20;99.90;;;;;;5051324;28;19973;-73
2022/04/28 05:46:53;;;;;;;;;;;9.30;99.90;;;;;;5051149;28;19954;-72
2022/04/28 05:49:18;;;;;;;;;;;9.40;99.90;;;;;;5051030;28;19912;-73
2022/04/28 05:51:44;;;;;;;;;;;9.40;99.90;;;;;;5050773;28;19920;-73
2022/04/28 05:54:09;;;;;;;;;;;9.50;99.90;;;;;;5049267;28;19924;-73
2022/04/28 05:56:35;;;;;;;;;;;9.60;99.90;;;;;;5050663;28;19909;-74
2022/04/28 05:59:01;;;;;;;;;;;9.60;99.90;;;;;;5048977;28;19909;-74
2022/04/28 06:01:28;;;;;;;;;;;9.70;99.90;;;;;;5051748;28;19909;-79
2022/04/28 06:03:53;;;;;;;;;;;9.80;99.90;;;;;;5055332;28;19919;-74
2022/04/28 06:06:19;;;;;;;;;;;9.90;99.90;;;;;;5055443;28;19909;-73
2022/04/28 06:08:44;;;;;;;;;;;10.00;99.90;;;;;;5053902;28;19955;-73
2022/04/28 06:11:10;;;;;;;;;;;10.00;99.90;;;;;;5055062;28;19951;-74
2022/04/28 06:13:36;;;;;;;;;;;10.10;99.90;;;;;;5055380;28;19916;-76
2022/04/28 06:16:02;;;;;;;;;;;10.20;99.90;;;;;;5055420;28;19916;-74
2022/04/28 06:18:27;;;;;;;;;;;10.30;99.90;;;;;;5053859;28;19909;-75
2022/04/28 06:20:53;;;;;;;;;;;10.30;99.90;;;;;;5053795;28;19932;-73
2022/04/28 06:23:18;;;;;;;;;;;10.40;99.90;;;;;;5054543;28;19920;-73
2022/04/28 06:25:44;;;;;;;;;;;10.50;99.90;;;;;;5054469;28;19997;-76
2022/04/28 06:28:10;;;;;;;;;;;10.70;99.90;;;;;;5055154;28;19912;-75
2022/04/28 06:30:36;;;;;;;;;;;10.70;99.90;;;;;;5055345;28;20328;-73
2022/04/28 06:33:01;;;;;;;;;;;10.80;99.90;;;;;;5056246;28;19940;-74
2022/04/28 06:35:27;;;;;;;;;;;10.90;99.90;;;;;;5058951;28;19951;-78
2022/04/28 06:37:53;;;;;;;;;;;10.90;99.90;;;;;;5060464;28;20285;-73
2022/04/28 06:40:18;;;;;;;;;;;11.00;99.90;;;;;;5066997;28;19913;-75
2022/04/28 06:42:45;;;;;;;;;;;11.10;99.90;;;;;;5063874;28;19908;-76
2022/04/28 06:45:11;;;;;;;;;;;11.20;99.90;;;;;;5057467;28;20254;-73
2022/04/28 06:47:37;;;;;;;;;;;11.30;99.90;;;;;;5054370;28;19978;-74
2022/04/28 06:50:03;;;;;;;;;;;11.30;99.90;;;;;;5054782;28;20365;-74
2022/04/28 06:52:28;;;;;;;;;;;11.30;99.90;;;;;;5054265;28;19997;-76
2022/04/28 06:54:54;;;;;;;;;;;11.40;99.90;;;;;;5054382;28;19916;-77
2022/04/28 06:57:20;;;;;;;;;;;11.50;99.90;;;;;;5052614;28;19909;-74
2022/04/28 06:59:45;;;;;;;;;;;11.50;99.90;;;;;;5053859;28;19913;-73
2022/04/28 07:02:11;;;;;;;;;;;11.60;99.90;;;;;;5053965;28;19909;-76
2022/04/28 07:04:37;;;;;;;;;;;11.60;99.90;;;;;;5064804;28;19909;-73
2022/04/28 07:07:02;;;;;;;;;;;11.70;99.90;;;;;;5054340;28;19909;-74
2022/04/28 07:09:28;;;;;;;;;;;11.80;99.90;;;;;;5052380;28;19970;-73
2022/04/28 07:11:54;;;;;;;;;;;11.90;99.90;;;;;;5053402;28;19913;-75
2022/04/28 07:14:19;;;;;;;;;;;12.00;99.90;;;;;;5052661;28;20285;-74
2022/04/28 07:16:45;;;;;;;;;;;12.00;99.90;;;;;;5053500;28;19916;-72
2022/04/28 07:19:10;;;;;;;;;;;12.10;99.90;;;;;;5053309;28;19913;-72
2022/04/28 07:21:36;;;;;;;;;;;12.20;99.90;;;;;;5053585;28;19908;-74
2022/04/28 07:24:01;;;;;;;;;;;12.30;99.90;;;;;;5054339;28;19936;-75
2022/04/28 07:26:28;;;;;;;;;;;12.40;99.90;;;;;;5054426;28;19916;-72
2022/04/28 07:28:54;;;;;;;;;;;12.50;99.90;;;;;;5054067;28;19913;-72
2022/04/28 07:31:19;;;;;;;;;;;12.60;99.80;;;;;;5054060;28;20012;-72
2022/04/28 07:33:45;;;;;;;;;;;12.70;99.60;;;;;;5054310;28;20376;-73
2022/04/28 07:36:12;;;;;;;;;;;12.70;99.30;;;;;;5053917;28;20015;-76
2022/04/28 07:38:38;;;;;;;;;;;12.80;98.90;;;;;;5054267;28;19991;-74
2022/04/28 07:41:04;;;;;;;;;;;12.90;99.20;;;;;;5053700;28;19992;-72
2022/04/28 07:43:29;;;;;;;;;;;13.10;99.90;;;;;;5053918;28;19955;-73
2022/04/28 07:45:55;;;;;;;;;;;13.20;99.90;;;;;;5054546;28;19963;-74
2022/04/28 07:48:20;;;;;;;;;;;13.40;99.30;;;;;;5053626;28;19913;-78
2022/04/28 07:50:47;;;;;;;;;;;13.60;98.90;;;;;;5053545;28;19913;-74
2022/04/28 07:53:12;;;;;;;;;;;13.70;98.10;;;;;;5054022;28;19915;-74
2022/04/28 07:55:38;;;;;;;;;;;13.80;97.80;;;;;;5052845;28;19991;-73
2022/04/28 07:58:03;;;;;;;;;;;13.90;97.30;;;;;;5053726;28;19912;-73
2022/04/28 08:00:29;;;;;;;;;;;13.90;97.20;;;;;;5053626;28;20327;-74
2022/04/28 08:02:54;;;;;;;;;;;14.00;97.20;;;;;;5053205;28;20027;-74
2022/04/28 08:05:20;;;;;;;;;;;14.00;97.00;;;;;;5053390;28;19909;-73
2022/04/28 08:07:45;;;;;;;;;;;14.10;96.90;;;;;;5052422;28;20454;-72
2022/04/28 08:10:12;;;;;;;;;;;14.20;96.90;;;;;;5053036;28;20327;-74
2022/04/28 08:12:38;;;;;;;;;;;14.30;96.80;;;;;;5053547;28;20007;-73
2022/04/28 08:15:04;;;;;;;;;;;14.40;96.60;;;;;;5053223;28;19967;-74
2022/04/28 08:17:29;;;;;;;;;;;14.40;96.40;;;;;;5053201;28;20011;-74
2022/04/28 08:19:54;;;;;;;;;;;14.40;96.30;;;;;;5052803;28;19913;-73
2022/04/28 08:22:20;;;;;;;;;;;14.30;95.10;;;;;;5053301;28;19948;-73
2022/04/28 08:24:45;;;;;;;;;;;14.20;95.00;;;;;;5053075;28;19924;-75
2022/04/28 08:27:11;;;;;;;;;;;14.40;95.50;;;;;;5053205;28;20370;-74
2022/04/28 08:29:36;;;;;;;;;;;14.40;95.60;;;;;;5053658;28;19908;-73
2022/04/28 08:32:02;;;;;;;;;;;14.50;95.20;;;;;;5054446;28;20008;-74
2022/04/28 08:34:27;;;;;;;;;;;14.60;94.70;;;;;;5054092;28;20390;-73
2022/04/28 08:36:53;;;;;;;;;;;14.70;94.10;;;;;;5053443;28;19925;-74
2022/04/28 08:39:19;;;;;;;;;;;14.80;93.40;;;;;;5052650;28;20290;-74
2022/04/28 08:41:45;;;;;;;;;;;14.90;92.90;;;;;;5052816;28;20003;-74
2022/04/28 08:44:17;;;;;;;;;;;14.70;92.10;;;;;;5052784;28;19909;-74
2022/04/28 08:46:53;;;;;;;;;;;14.80;92.40;;;;;;5052459;28;20057;-73
2022/04/28 08:49:23;;;;;;;;;;;15.00;92.30;;;;;;5052289;28;19936;-73
2022/04/28 08:51:50;;;;;;;;;;;15.00;92.10;;;;;;5067700;28;19913;-74
2022/04/28 08:54:16;;;;;;;;;;;15.10;92.30;;;;;;5052597;28;19909;-73
2022/04/28 08:56:42;;;;;;;;;;;15.20;92.20;;;;;;5051198;28;19948;-74
2022/04/28 08:59:08;;;;;;;;;;;15.00;92.40;;;;;;5052333;28;19955;-73
2022/04/28 09:01:33;;;;;;;;;;;15.20;92.50;;;;;;5052295;28;20398;-75
2022/04/28 09:04:00;;;;;;;;;;;15.30;91.20;;;;;;5052505;28;19920;-74
2022/04/28 09:06:29;;;;;;;;;;;15.50;90.90;;;;;;5052328;28;20354;-73
2022/04/28 09:08:58;;;;;;;;;;;15.60;91.00;;;;;;5052604;28;19909;-76
2022/04/28 09:11:24;;;;;;;;;;;15.40;88.50;;;;;;5051918;28;19970;-74
2022/04/28 09:14:10;;;;;;;;;;;15.30;88.20;;;;;;5052398;28;19913;-73
2022/04/28 09:16:37;;;;;;;;;;;15.20;88.70;;;;;;5052529;28;19934;-74
2022/04/28 09:19:02;;;;;;;;;;;15.00;88.40;;;;;;5052379;28;20366;-77
2022/04/28 09:21:28;;;;;;;;;;;15.00;89.70;;;;;;5051990;28;19909;-74
2022/04/28 09:23:53;;;;;;;;;;;15.10;88.80;;;;;;5052144;28;19995;-75
2022/04/28 09:26:22;;;;;;;;;;;15.20;89.60;;;;;;5052364;28;19962;-75
2022/04/28 09:28:48;;;;;;;;;;;15.10;90.10;;;;;;5052038;28;19908;-74
2022/04/28 09:31:13;;;;;;;;;;;15.30;90.50;;;;;;5051800;28;20368;-76
2022/04/28 09:33:40;;;;;;;;;;;15.50;90.70;;;;;;5052670;28;19951;-74
2022/04/28 09:36:08;;;;;;;;;;;15.60;90.20;;;;;;5051408;28;19909;-74
2022/04/28 09:38:33;;;;;;;;;;;15.80;89.00;;;;;;5051509;28;19974;-73
2022/04/28 09:43:42;;;;;;;;;;;15.80;89.50;;;;;;5052371;28;20055;-74
2022/04/28 09:46:08;;;;;;;;;;;15.50;89.60;;;;;;5052441;28;19908;-76
2022/04/28 09:48:36;;;;;;;;;;;15.70;90.40;;;;;;5052232;28;19913;-74
2022/04/28 09:51:13;;;;;;;;;;;15.60;87.30;;;;;;5051462;28;20289;-74
2022/04/28 09:53:39;;;;;;;;;;;15.50;88.80;;;;;;5051792;28;20362;-75
2022/04/28 09:56:05;;;;;;;;;;;15.60;89.10;;;;;;5052165;28;19908;-74
2022/04/28 09:58:31;;;;;;;;;;;15.60;88.90;;;;;;5052025;28;20328;-75
2022/04/28 10:01:02;;;;;;;;;;;16.00;91.90;;;;;;5051965;28;20378;-76
2022/04/28 10:03:33;;;;;;;;;;;16.40;90.40;;;;;;5051940;28;19909;-75
2022/04/28 10:05:59;;;;;;;;;;;16.50;84.50;;;;;;5050514;28;19980;-76
2022/04/28 10:08:25;;;;;;;;;;;16.20;85.70;;;;;;5037490;28;19913;-74
2022/04/28 10:10:56;;;;;;;;;;;16.10;86.10;;;;;;5049353;28;19978;-74
2022/04/28 10:13:21;;;;;;;;;;;16.00;85.10;;;;;;5050505;28;19913;-73
2022/04/28 10:15:49;;;;;;;;;;;16.10;84.80;;;;;;5050560;28;19920;-74
2022/04/28 10:18:16;;;;;;;;;;;15.90;83.00;;;;;;5053451;28;19913;-73
2022/04/28 10:20:45;;;;;;;;;;;15.90;83.00;;;;;;5051457;28;19917;-74
2022/04/28 10:23:11;;;;;;;;;;;15.80;83.30;;;;;;5050622;28;20011;-74
2022/04/28 10:34:13;;;;;;;;;;;16.00;82.90;;;;;;5053435;28;20427;-76
2022/04/28 10:36:50;;;;;;;;;;;16.10;81.00;;;;;;5052591;28;20262;-75
2022/04/28 10:39:16;;;;;;;;;;;16.10;77.70;;;;;;5051714;28;19915;-75
2022/04/28 10:41:41;;;;;;;;;;;15.80;79.70;;;;;;5053705;28;20268;-77
2022/04/28 10:44:16;;;;;;;;;;;15.90;82.80;;;;;;5051467;28;19909;-74
2022/04/28 10:46:55;;;;;;;;;;;16.00;83.60;;;;;;5051998;28;19915;-74
2022/04/28 10:49:24;;;;;;;;;;;15.90;79.10;;;;;;5054737;28;19908;-72
2022/04/28 10:51:55;;;;;;;;;;;15.90;77.60;;;;;;5053461;28;20251;-75
2022/04/28 10:54:23;;;;;;;;;;;15.90;76.40;;;;;;5053690;28;19915;-74
2022/04/28 10:56:50;;;;;;;;;;;16.10;77.70;;;;;;5054812;28;19955;-75
2022/04/28 10:59:25;;;;;;;;;;;16.20;78.50;;;;;;5054686;28;20325;-74
2022/04/28 11:01:50;;;;;;;;;;;16.10;78.90;;;;;;5055982;28;19909;-75
2022/04/28 11:04:19;;;;;;;;;;;16.00;79.70;;;;;;5055701;28;19916;-73
2022/04/28 11:06:53;;;;;;;;;;;16.00;80.10;;;;;;5057654;28;20444;-75
2022/04/28 11:09:30;;;;;;;;;;;16.10;80.60;;;;;;5057502;28;19972;-74
2022/04/28 11:12:05;;;;;;;;;;;16.20;80.90;;;;;;5057811;28;20383;-74
2022/04/28 11:14:43;;;;;;;;;;;16.40;79.20;;;;;;5055707;28;19909;-74
2022/04/28 11:17:10;;;;;;;;;;;16.30;78.30;;;;;;5055472;28;20297;-74
2022/04/28 11:19:36;;;;;;;;;;;16.30;78.10;;;;;;5054985;28;20324;-74
2022/04/28 11:22:01;;;;;;;;;;;16.30;77.50;;;;;;5055512;28;19955;-73
2022/04/28 11:24:28;;;;;;;;;;;16.40;79.10;;;;;;5055513;28;19970;-76
2022/04/28 11:26:55;;;;;;;;;;;16.40;77.40;;;;;;5055983;28;19909;-74
2022/04/28 11:29:22;;;;;;;;;;;16.30;76.60;;;;;;5055252;28;20320;-75
2022/04/28 11:31:49;;;;;;;;;;;16.30;76.60;;;;;;5055219;28;19935;-75
2022/04/28 11:34:14;;;;;;;;;;;16.30;75.90;;;;;;5054767;28;19909;-74
2022/04/28 11:36:41;;;;;;;;;;;16.30;76.60;;;;;;5055026;28;19908;-75
2022/04/28 11:39:08;;;;;;;;;;;16.30;76.30;;;;;;5053073;28;19909;-76
2022/04/28 11:41:34;;;;;;;;;;;16.50;76.70;;;;;;5055125;28;20401;-76
2022/04/28 11:44:07;;;;;;;;;;;16.60;75.60;;;;;;5054571;28;19943;-74
2022/04/28 11:46:33;;;;;;;;;;;16.60;73.30;;;;;;5054863;28;20027;-75
2022/04/28 11:48:59;;;;;;;;;;;16.30;74.00;;;;;;5054688;28;19913;-74
2022/04/28 11:51:24;;;;;;;;;;;16.20;75.90;;;;;;5054296;28;19936;-75
2022/04/28 11:53:50;;;;;;;;;;;16.20;77.40;;;;;;5054447;28;19916;-74
2022/04/28 11:56:16;;;;;;;;;;;16.20;75.50;;;;;;5054661;28;19909;-73
2022/04/28 11:58:41;;;;;;;;;;;16.20;77.00;;;;;;5053653;28;19913;-73
2022/04/28 12:01:09;;;;;;;;;;;16.30;77.40;;;;;;5054129;28;20467;-73
2022/04/28 12:03:35;;;;;;;;;;;16.50;76.90;;;;;;5053949;28;19908;-73
2022/04/28 12:06:01;;;;;;;;;;;16.50;75.70;;;;;;5054100;28;20369;-75
2022/04/28 12:08:27;;;;;;;;;;;16.50;72.80;;;;;;5054177;28;20436;-73
2022/04/28 12:19:19;;;;;;;;;;;16.50;73.00;;;;;;5053921;28;19920;-74
2022/04/28 12:19:23;;;;;;;;;;;16.50;73.80;;;;;;5054040;28;19908;-78
2022/04/28 12:21:49;;;;;;;;;;;16.40;75.70;;;;;;5054604;28;19915;-73
2022/04/28 12:24:15;;;;;;;;;;;16.50;75.10;;;;;;5054089;28;19916;-73
2022/04/28 12:26:42;;;;;;;;;;;16.50;76.10;;;;;;5053344;28;19909;-75
2022/04/28 12:29:17;;;;;;;;;;;16.50;75.80;;;;;;5068341;28;19924;-73
2022/04/28 12:31:43;;;;;;;;;;;16.60;74.60;;;;;;5053451;28;19927;-72
2022/04/28 12:34:13;;;;;;;;;;;16.60;74.30;;;;;;5053162;28;19909;-74
2022/04/28 12:36:48;;;;;;;;;;;16.60;74.50;;;;;;5052887;28;19969;-74
2022/04/28 12:39:15;;;;;;;;;;;16.80;73.80;;;;;;5053279;28;20234;-75
2022/04/28 12:41:42;;;;;;;;;;;16.90;74.00;;;;;;5053297;28;19916;-73
2022/04/28 12:44:07;;;;;;;;;;;16.90;73.50;;;;;;5053350;28;20007;-76
2022/04/28 12:46:34;;;;;;;;;;;16.80;72.50;;;;;;5053333;28;20322;-74
2022/04/28 12:49:04;;;;;;;;;;;16.80;72.60;;;;;;5053232;28;20266;-76
2022/04/28 12:51:30;;;;;;;;;;;16.80;72.30;;;;;;5052832;28;19920;-74
2022/04/28 12:54:09;;;;;;;;;;;16.70;70.90;;;;;;5052930;28;19909;-75
2022/04/28 12:56:36;;;;;;;;;;;16.70;71.30;;;;;;5053109;28;20289;-74
2022/04/28 12:59:06;;;;;;;;;;;16.70;72.10;;;;;;5053072;28;19908;-74
2022/04/28 13:01:32;;;;;;;;;;;16.60;72.70;;;;;;5052799;28;19909;-74
2022/04/28 13:04:07;;;;;;;;;;;16.70;74.10;;;;;;5052967;28;19916;-74
2022/04/28 13:06:37;;;;;;;;;;;16.80;74.50;;;;;;5052817;28;19958;-74
2022/04/28 13:09:03;;;;;;;;;;;16.90;72.90;;;;;;5051507;28;19912;-79
2022/04/28 13:11:31;;;;;;;;;;;17.00;75.30;;;;;;5052244;28;19913;-74
2022/04/28 13:13:57;;;;;;;;;;;17.30;72.50;;;;;;5052402;28;19947;-74
2022/04/28 13:16:22;;;;;;;;;;;17.30;71.10;;;;;;5052708;28;19913;-74
2022/04/28 13:18:48;;;;;;;;;;;17.20;70.00;;;;;;5052816;28;20415;-74
2022/04/28 13:21:15;;;;;;;;;;;17.30;70.50;;;;;;5052607;28;19915;-73
2022/04/28 13:23:41;;;;;;;;;;;17.40;71.20;;;;;;5052466;28;20439;-75
2022/04/28 13:26:08;;;;;;;;;;;17.40;69.50;;;;;;5052374;28;19979;-75
2022/04/28 13:28:33;;;;;;;;;;;17.40;68.80;;;;;;5053010;28;19912;-75
2022/04/28 13:30:59;;;;;;;;;;;17.40;68.90;;;;;;5052617;28;20335;-76
2022/04/28 13:33:24;;;;;;;;;;;17.50;69.70;;;;;;5053715;28;20392;-73
2022/04/28 13:35:49;;;;;;;;;;;17.70;70.30;;;;;;5061516;28;19909;-75
2022/04/28 13:38:16;;;;;;;;;;;18.00;69.90;;;;;;5060108;28;19916;-77
2022/04/28 13:40:41;;;;;;;;;;;18.30;71.70;;;;;;5060827;28;19909;-76
2022/04/28 13:43:07;;;;;;;;;;;18.20;66.40;;;;;;5059853;28;19944;-74
2022/04/28 13:45:32;;;;;;;;;;;18.30;65.70;;;;;;5056409;28;19913;-74
2022/04/28 13:47:58;;;;;;;;;;;18.50;65.20;;;;;;5052491;28;19920;-75
2022/04/28 13:50:24;;;;;;;;;;;18.70;65.20;;;;;;5052920;28;20003;-75
2022/04/28 13:52:50;;;;;;;;;;;18.70;62.00;;;;;;5052597;28;19921;-74
2022/04/28 13:55:16;;;;;;;;;;;18.90;63.40;;;;;;5054455;28;20010;-74
2022/04/28 13:57:41;;;;;;;;;;;19.00;64.50;;;;;;5052371;28;20382;-74
2022/04/28 14:00:07;;;;;;;;;;;19.30;64.90;;;;;;5053846;28;19909;-75
2022/04/28 14:02:33;;;;;;;;;;;19.50;64.70;;;;;;5059033;28;19913;-74
2022/04/28 14:04:58;;;;;;;;;;;19.80;64.30;;;;;;5057152;28;19952;-75
2022/04/28 14:07:25;;;;;;;;;;;20.00;61.60;;;;;;5057362;28;19915;-74
2022/04/28 14:09:51;;;;;;;;;;;19.90;62.20;;;;;;5058812;28;19913;-75
2022/04/28 14:12:16;;;;;;;;;;;19.80;60.70;;;;;;5059141;28;19938;-74
2022/04/28 14:14:42;;;;;;;;;;;19.70;59.10;;;;;;5059175;28;19987;-75
2022/04/28 14:17:07;;;;;;;;;;;19.50;58.90;;;;;;5052215;28;19916;-75
2022/04/28 14:19:33;;;;;;;;;;;19.50;60.10;;;;;;5051692;28;19909;-75
2022/04/28 14:22:00;;;;;;;;;;;19.60;59.10;;;;;;5051324;28;19974;-73
2022/04/28 14:24:26;;;;;;;;;;;19.50;59.50;;;;;;5056165;28;19923;-74
2022/04/28 14:26:51;;;;;;;;;;;19.70;59.70;;;;;;5055992;28;20008;-74
2022/04/28 14:29:18;;;;;;;;;;;20.00;61.70;;;;;;5056322;28;20266;-75
2022/04/28 14:31:43;;;;;;;;;;;20.30;60.80;;;;;;5055867;28;19916;-74
2022/04/28 14:34:09;;;;;;;;;;;20.60;61.30;;;;;;5055735;28;19955;-76
2022/04/28 14:36:35;;;;;;;;;;;21.00;61.70;;;;;;5048675;28;19924;-74
2022/04/28 14:39:01;;;;;;;;;;;21.20;60.70;;;;;;5051103;28;19943;-74
2022/04/28 14:41:26;;;;;;;;;;;21.20;60.60;;;;;;5051251;28;20003;-74
2022/04/28 14:43:52;;;;;;;;;;;21.30;60.70;;;;;;5049734;28;19948;-75
2022/04/28 14:46:17;;;;;;;;;;;21.20;60.90;;;;;;5052316;28;19918;-76
2022/04/28 14:54:11;;;;;;;;;;;21.90;59.40;;;;;;5050395;28;19915;-75
2022/04/28 14:56:37;;;;;;;;;;;22.00;59.10;;;;;;5048438;28;19913;-74